sensor_id;sensor_type;location;lat;lon;timestamp;temperature;humidity
60293;DHT22;52402;52.670;6.750;2023-09-19T00:00:46;14.70;99.90
60293;DHT22;52402;52.670;6.750;2023-09-19T00:03:15;14.60;99.90
60293;DHT22;52402;52.670;6.750;2023-09-19T00:05:41;14.60;99.90
60293;DHT22;52402;52.670;6.750;2023-09-19T00:08:10;14.50;99.90
60293;DHT22;52402;52.670;6.750;2023-09-19T00:10:36;14.50;99.90
60293;DHT22;52402;52.670;6.750;2023-09-19T00:13:04;14.40;99.90
60293;DHT22;52402;52.670;6.750;2023-09-19T00:15:31;14.40;99.90
60293;DHT22;52402;52.670;6.750;2023-09-19T00:18:01;14.40;99.90
60293;DHT22;52402;52.670;6.750;2023-09-19T00:20:28;14.30;99.90
60293;DHT22;52402;52.670;6.750;2023-09-19T00:22:53;14.30;99.90
60293;DHT22;52402;52.670;6.750;2023-09-19T00:25:21;14.30;99.90
60293;DHT22;52402;52.670;6.750;2023-09-19T00:27:47;14.30;99.90
60293;DHT22;52402;52.670;6.750;2023-09-19T00:30:15;14.20;99.90
60293;DHT22;52402;52.670;6.750;2023-09-19T00:32:46;14.20;99.90
60293;DHT22;52402;52.670;6.750;2023-09-19T00:35:17;14.20;99.90
60293;DHT22;52402;52.670;6.750;2023-09-19T00:37:44;14.20;99.90
60293;DHT22;52402;52.670;6.750;2023-09-19T00:40:10;14.10;99.90
60293;DHT22;52402;52.670;6.750;2023-09-19T00:42:38;14.10;99.90
60293;DHT22;52402;52.670;6.750;2023-09-19T00:45:06;14.10;99.90
60293;DHT22;52402;52.670;6.750;2023-09-19T00:47:31;14.00;99.90
60293;DHT22;52402;52.670;6.750;2023-09-19T00:49:57;14.00;99.90
60293;DHT22;52402;52.670;6.750;2023-09-19T00:52:24;14.00;99.90
60293;DHT22;52402;52.670;6.750;2023-09-19T00:54:50;14.00;99.90
60293;DHT22;52402;52.670;6.750;2023-09-19T00:57:16;13.90;99.90
60293;DHT22;52402;52.670;6.750;2023-09-19T00:59:43;13.90;99.90
60293;DHT22;52402;52.670;6.750;2023-09-19T01:02:09;13.90;99.90
60293;DHT22;52402;52.670;6.750;2023-09-19T01:04:35;13.90;99.90
60293;DHT22;52402;52.670;6.750;2023-09-19T01:07:16;13.90;99.90
60293;DHT22;52402;52.670;6.750;2023-09-19T01:09:42;14.00;99.90
60293;DHT22;52402;52.670;6.750;2023-09-19T01:12:09;14.00;99.90
60293;DHT22;52402;52.670;6.750;2023-09-19T01:14:50;14.00;99.90
60293;DHT22;52402;52.670;6.750;2023-09-19T01:17:25;14.00;99.90
60293;DHT22;52402;52.670;6.750;2023-09-19T01:25:34;14.00;99.90
60293;DHT22;52402;52.670;6.750;2023-09-19T01:28:30;14.00;99.90
60293;DHT22;52402;52.670;6.750;2023-09-19T01:31:02;14.00;99.90
60293;DHT22;52402;52.670;6.750;2023-09-19T01:33:31;14.00;99.90
60293;DHT22;52402;52.670;6.750;2023-09-19T01:36:16;14.00;99.90
60293;DHT22;52402;52.670;6.750;2023-09-19T01:38:42;14.00;99.90
60293;DHT22;52402;52.670;6.750;2023-09-19T01:41:13;14.00;99.90
60293;DHT22;52402;52.670;6.750;2023-09-19T01:43:43;14.00;99.90
60293;DHT22;52402;52.670;6.750;2023-09-19T01:46:15;14.00;99.90
60293;DHT22;52402;52.670;6.750;2023-09-19T01:49:06;13.90;99.90
60293;DHT22;52402;52.670;6.750;2023-09-19T01:51:56;13.90;99.90
60293;DHT22;52402;52.670;6.750;2023-09-19T01:54:41;13.90;99.90
60293;DHT22;52402;52.670;6.750;2023-09-19T01:57:26;13.80;99.90
60293;DHT22;52402;52.670;6.750;2023-09-19T02:00:06;13.80;99.90
60293;DHT22;52402;52.670;6.750;2023-09-19T02:02:36;13.70;99.90
60293;DHT22;52402;52.670;6.750;2023-09-19T02:05:05;13.70;99.90
60293;DHT22;52402;52.670;6.750;2023-09-19T02:07:32;13.70;99.90
60293;DHT22;52402;52.670;6.750;2023-09-19T02:09:58;13.70;99.90
60293;DHT22;52402;52.670;6.750;2023-09-19T02:12:30;13.70;99.90
60293;DHT22;52402;52.670;6.750;2023-09-19T02:14:56;13.60;99.90
60293;DHT22;52402;52.670;6.750;2023-09-19T02:17:24;13.60;99.90
60293;DHT22;52402;52.670;6.750;2023-09-19T02:19:54;13.60;99.90
60293;DHT22;52402;52.670;6.750;2023-09-19T02:22:22;13.60;99.90
60293;DHT22;52402;52.670;6.750;2023-09-19T02:24:50;13.50;99.90
60293;DHT22;52402;52.670;6.750;2023-09-19T02:27:16;13.60;99.90
60293;DHT22;52402;52.670;6.750;2023-09-19T02:29:43;13.50;99.90
60293;DHT22;52402;52.670;6.750;2023-09-19T02:32:09;13.50;99.90
60293;DHT22;52402;52.670;6.750;2023-09-19T02:34:37;13.40;99.90
60293;DHT22;52402;52.670;6.750;2023-09-19T02:37:05;13.50;99.90
60293;DHT22;52402;52.670;6.750;2023-09-19T02:39:32;13.40;99.90
60293;DHT22;52402;52.670;6.750;2023-09-19T02:41:58;13.40;99.90
60293;DHT22;52402;52.670;6.750;2023-09-19T02:44:24;13.40;99.90
60293;DHT22;52402;52.670;6.750;2023-09-19T02:46:50;13.40;99.90
60293;DHT22;52402;52.670;6.750;2023-09-19T02:49:16;13.40;99.90
60293;DHT22;52402;52.670;6.750;2023-09-19T02:51:43;13.30;99.90
60293;DHT22;52402;52.670;6.750;2023-09-19T02:54:09;13.40;99.90
60293;DHT22;52402;52.670;6.750;2023-09-19T02:56:36;13.40;99.90
60293;DHT22;52402;52.670;6.750;2023-09-19T02:59:04;13.30;99.90
60293;DHT22;52402;52.670;6.750;2023-09-19T03:01:35;13.30;99.90
60293;DHT22;52402;52.670;6.750;2023-09-19T03:04:02;13.30;99.90
60293;DHT22;52402;52.670;6.750;2023-09-19T03:06:28;13.30;99.90
60293;DHT22;52402;52.670;6.750;2023-09-19T03:08:56;13.30;99.90
60293;DHT22;52402;52.670;6.750;2023-09-19T03:11:22;13.30;99.90
60293;DHT22;52402;52.670;6.750;2023-09-19T03:13:54;13.30;99.90
60293;DHT22;52402;52.670;6.750;2023-09-19T03:16:20;13.30;99.90
60293;DHT22;52402;52.670;6.750;2023-09-19T03:18:50;13.30;99.90
60293;DHT22;52402;52.670;6.750;2023-09-19T03:21:16;13.30;99.90
60293;DHT22;52402;52.670;6.750;2023-09-19T03:23:43;13.30;99.90
60293;DHT22;52402;52.670;6.750;2023-09-19T03:26:11;13.30;99.90
60293;DHT22;52402;52.670;6.750;2023-09-19T03:28:38;13.40;99.90
60293;DHT22;52402;52.670;6.750;2023-09-19T03:31:05;13.40;99.90
60293;DHT22;52402;52.670;6.750;2023-09-19T03:33:31;13.40;99.90
60293;DHT22;52402;52.670;6.750;2023-09-19T03:35:58;13.40;99.90
60293;DHT22;52402;52.670;6.750;2023-09-19T03:38:25;13.50;99.90
60293;DHT22;52402;52.670;6.750;2023-09-19T03:40:51;13.50;99.90
60293;DHT22;52402;52.670;6.750;2023-09-19T03:43:16;13.60;99.90
60293;DHT22;52402;52.670;6.750;2023-09-19T03:45:42;13.60;99.90
60293;DHT22;52402;52.670;6.750;2023-09-19T03:48:09;13.60;99.90
60293;DHT22;52402;52.670;6.750;2023-09-19T03:50:35;13.70;99.90
60293;DHT22;52402;52.670;6.750;2023-09-19T03:53:02;13.70;99.90
60293;DHT22;52402;52.670;6.750;2023-09-19T03:55:28;13.70;99.90
60293;DHT22;52402;52.670;6.750;2023-09-19T03:57:55;13.80;99.90
60293;DHT22;52402;52.670;6.750;2023-09-19T04:00:20;13.80;99.90
60293;DHT22;52402;52.670;6.750;2023-09-19T04:02:48;13.80;99.90
60293;DHT22;52402;52.670;6.750;2023-09-19T04:05:13;13.80;99.90
60293;DHT22;52402;52.670;6.750;2023-09-19T04:07:39;13.80;99.90
60293;DHT22;52402;52.670;6.750;2023-09-19T04:10:06;13.80;99.90
60293;DHT22;52402;52.670;6.750;2023-09-19T04:12:34;13.80;99.90
60293;DHT22;52402;52.670;6.750;2023-09-19T04:14:59;13.80;99.90
60293;DHT22;52402;52.670;6.750;2023-09-19T04:17:25;13.80;99.90
60293;DHT22;52402;52.670;6.750;2023-09-19T04:19:51;13.70;99.90
60293;DHT22;52402;52.670;6.750;2023-09-19T04:22:19;13.80;99.90
60293;DHT22;52402;52.670;6.750;2023-09-19T04:24:44;13.70;99.90
60293;DHT22;52402;52.670;6.750;2023-09-19T04:27:11;13.70;99.90
60293;DHT22;52402;52.670;6.750;2023-09-19T04:29:40;13.60;99.90
60293;DHT22;52402;52.670;6.750;2023-09-19T04:32:07;13.60;99.90
60293;DHT22;52402;52.670;6.750;2023-09-19T04:34:34;13.60;99.90
60293;DHT22;52402;52.670;6.750;2023-09-19T04:37:00;13.50;99.90
60293;DHT22;52402;52.670;6.750;2023-09-19T04:39:26;13.60;99.90
60293;DHT22;52402;52.670;6.750;2023-09-19T04:41:52;13.50;99.90
60293;DHT22;52402;52.670;6.750;2023-09-19T04:44:18;13.50;99.90
60293;DHT22;52402;52.670;6.750;2023-09-19T04:46:52;13.50;99.90
60293;DHT22;52402;52.670;6.750;2023-09-19T04:49:17;13.40;99.90
60293;DHT22;52402;52.670;6.750;2023-09-19T04:51:43;13.40;99.90
60293;DHT22;52402;52.670;6.750;2023-09-19T04:54:09;13.40;99.90
60293;DHT22;52402;52.670;6.750;2023-09-19T04:56:35;13.40;99.90
60293;DHT22;52402;52.670;6.750;2023-09-19T04:59:00;13.40;99.90
60293;DHT22;52402;52.670;6.750;2023-09-19T05:01:26;13.30;99.90
60293;DHT22;52402;52.670;6.750;2023-09-19T05:03:52;13.30;99.90
60293;DHT22;52402;52.670;6.750;2023-09-19T05:06:21;13.30;99.90
60293;DHT22;52402;52.670;6.750;2023-09-19T05:08:52;13.30;99.90
60293;DHT22;52402;52.670;6.750;2023-09-19T05:11:19;13.30;99.90
60293;DHT22;52402;52.670;6.750;2023-09-19T05:13:48;13.30;99.90
60293;DHT22;52402;52.670;6.750;2023-09-19T05:16:16;13.30;99.90
60293;DHT22;52402;52.670;6.750;2023-09-19T05:18:41;13.30;99.90
60293;DHT22;52402;52.670;6.750;2023-09-19T05:21:07;13.20;99.90
60293;DHT22;52402;52.670;6.750;2023-09-19T05:23:39;13.20;99.90
60293;DHT22;52402;52.670;6.750;2023-09-19T05:26:04;13.20;99.90
60293;DHT22;52402;52.670;6.750;2023-09-19T05:28:30;13.20;99.90
60293;DHT22;52402;52.670;6.750;2023-09-19T05:31:00;13.20;99.90
60293;DHT22;52402;52.670;6.750;2023-09-19T05:33:27;13.10;99.90
60293;DHT22;52402;52.670;6.750;2023-09-19T05:35:54;13.10;99.90
60293;DHT22;52402;52.670;6.750;2023-09-19T05:38:19;13.10;99.90
60293;DHT22;52402;52.670;6.750;2023-09-19T05:40:46;13.10;99.90
60293;DHT22;52402;52.670;6.750;2023-09-19T05:43:12;13.10;99.90
60293;DHT22;52402;52.670;6.750;2023-09-19T05:45:40;13.10;99.90
60293;DHT22;52402;52.670;6.750;2023-09-19T05:48:10;13.10;99.90
60293;DHT22;52402;52.670;6.750;2023-09-19T05:50:43;13.00;99.90
60293;DHT22;52402;52.670;6.750;2023-09-19T05:53:09;13.00;99.90
60293;DHT22;52402;52.670;6.750;2023-09-19T05:55:47;13.00;99.90
60293;DHT22;52402;52.670;6.750;2023-09-19T05:58:13;13.00;99.90
60293;DHT22;52402;52.670;6.750;2023-09-19T06:00:43;13.00;99.90
60293;DHT22;52402;52.670;6.750;2023-09-19T06:03:10;13.00;99.90
60293;DHT22;52402;52.670;6.750;2023-09-19T06:05:37;13.00;99.90
60293;DHT22;52402;52.670;6.750;2023-09-19T06:08:06;13.10;99.90
60293;DHT22;52402;52.670;6.750;2023-09-19T06:10:33;13.20;99.90
60293;DHT22;52402;52.670;6.750;2023-09-19T06:13:01;13.30;99.90
60293;DHT22;52402;52.670;6.750;2023-09-19T06:15:32;13.40;99.90
60293;DHT22;52402;52.670;6.750;2023-09-19T06:17:59;13.50;99.90
60293;DHT22;52402;52.670;6.750;2023-09-19T06:20:27;13.60;99.90
60293;DHT22;52402;52.670;6.750;2023-09-19T06:22:53;13.70;99.90
60293;DHT22;52402;52.670;6.750;2023-09-19T06:25:19;13.70;99.90
60293;DHT22;52402;52.670;6.750;2023-09-19T06:27:46;13.70;99.90
60293;DHT22;52402;52.670;6.750;2023-09-19T06:30:12;13.60;99.90
60293;DHT22;52402;52.670;6.750;2023-09-19T06:32:39;13.60;99.90
60293;DHT22;52402;52.670;6.750;2023-09-19T06:35:06;13.70;99.90
60293;DHT22;52402;52.670;6.750;2023-09-19T06:37:37;13.60;99.90
60293;DHT22;52402;52.670;6.750;2023-09-19T06:40:12;13.70;99.90
60293;DHT22;52402;52.670;6.750;2023-09-19T06:42:42;13.70;99.90
60293;DHT22;52402;52.670;6.750;2023-09-19T06:45:09;13.70;99.90
60293;DHT22;52402;52.670;6.750;2023-09-19T06:47:37;13.80;99.90
60293;DHT22;52402;52.670;6.750;2023-09-19T06:50:03;13.80;99.90
60293;DHT22;52402;52.670;6.750;2023-09-19T06:52:29;13.80;99.90
60293;DHT22;52402;52.670;6.750;2023-09-19T06:54:55;13.80;99.90
60293;DHT22;52402;52.670;6.750;2023-09-19T06:57:21;13.90;99.90
60293;DHT22;52402;52.670;6.750;2023-09-19T06:59:46;13.90;99.90
60293;DHT22;52402;52.670;6.750;2023-09-19T07:02:12;14.00;99.90
60293;DHT22;52402;52.670;6.750;2023-09-19T07:04:40;14.00;99.90
60293;DHT22;52402;52.670;6.750;2023-09-19T07:07:06;14.10;99.90
60293;DHT22;52402;52.670;6.750;2023-09-19T07:09:34;14.10;99.90
60293;DHT22;52402;52.670;6.750;2023-09-19T07:12:00;14.20;99.90
60293;DHT22;52402;52.670;6.750;2023-09-19T07:14:27;14.20;99.90
60293;DHT22;52402;52.670;6.750;2023-09-19T07:16:53;14.20;99.90
60293;DHT22;52402;52.670;6.750;2023-09-19T07:19:20;14.30;99.90
60293;DHT22;52402;52.670;6.750;2023-09-19T07:21:45;14.20;99.90
60293;DHT22;52402;52.670;6.750;2023-09-19T07:24:12;14.30;99.90
60293;DHT22;52402;52.670;6.750;2023-09-19T07:26:38;14.40;99.90
60293;DHT22;52402;52.670;6.750;2023-09-19T07:29:05;14.50;99.90
60293;DHT22;52402;52.670;6.750;2023-09-19T07:31:32;14.70;99.90
60293;DHT22;52402;52.670;6.750;2023-09-19T07:33:57;14.80;99.90
60293;DHT22;52402;52.670;6.750;2023-09-19T07:36:23;14.90;99.90
60293;DHT22;52402;52.670;6.750;2023-09-19T07:38:50;14.90;99.90
60293;DHT22;52402;52.670;6.750;2023-09-19T07:41:16;15.00;99.90
60293;DHT22;52402;52.670;6.750;2023-09-19T07:43:42;15.00;99.90
60293;DHT22;52402;52.670;6.750;2023-09-19T07:46:09;15.10;99.90
60293;DHT22;52402;52.670;6.750;2023-09-19T07:48:38;15.20;99.90
60293;DHT22;52402;52.670;6.750;2023-09-19T07:51:08;15.20;99.90
60293;DHT22;52402;52.670;6.750;2023-09-19T07:53:34;15.20;99.90
60293;DHT22;52402;52.670;6.750;2023-09-19T07:56:05;15.30;99.90
60293;DHT22;52402;52.670;6.750;2023-09-19T07:58:32;15.30;99.90
60293;DHT22;52402;52.670;6.750;2023-09-19T08:01:09;15.30;99.90
60293;DHT22;52402;52.670;6.750;2023-09-19T08:03:36;15.30;99.90
60293;DHT22;52402;52.670;6.750;2023-09-19T08:06:07;15.30;99.90
60293;DHT22;52402;52.670;6.750;2023-09-19T08:08:33;15.30;99.90
60293;DHT22;52402;52.670;6.750;2023-09-19T08:11:08;15.30;99.90
60293;DHT22;52402;52.670;6.750;2023-09-19T08:13:41;15.40;99.90
60293;DHT22;52402;52.670;6.750;2023-09-19T08:16:11;15.40;99.90
60293;DHT22;52402;52.670;6.750;2023-09-19T08:18:37;15.50;99.90
60293;DHT22;52402;52.670;6.750;2023-09-19T08:21:06;15.40;99.90
60293;DHT22;52402;52.670;6.750;2023-09-19T08:23:36;15.50;99.90
60293;DHT22;52402;52.670;6.750;2023-09-19T08:26:03;15.50;99.90
60293;DHT22;52402;52.670;6.750;2023-09-19T08:28:35;15.50;99.90
60293;DHT22;52402;52.670;6.750;2023-09-19T08:31:05;15.50;99.90
60293;DHT22;52402;52.670;6.750;2023-09-19T08:33:35;15.60;99.90
60293;DHT22;52402;52.670;6.750;2023-09-19T08:36:02;15.60;99.90
60293;DHT22;52402;52.670;6.750;2023-09-19T08:38:31;15.70;99.90
60293;DHT22;52402;52.670;6.750;2023-09-19T08:40:59;15.80;99.90
60293;DHT22;52402;52.670;6.750;2023-09-19T08:43:25;15.80;99.90
60293;DHT22;52402;52.670;6.750;2023-09-19T08:45:58;15.90;99.90
60293;DHT22;52402;52.670;6.750;2023-09-19T08:48:29;15.90;99.90
60293;DHT22;52402;52.670;6.750;2023-09-19T08:51:02;16.00;99.90
60293;DHT22;52402;52.670;6.750;2023-09-19T08:53:54;16.00;99.90
60293;DHT22;52402;52.670;6.750;2023-09-19T08:56:26;16.10;99.90
60293;DHT22;52402;52.670;6.750;2023-09-19T08:58:57;16.10;99.90
60293;DHT22;52402;52.670;6.750;2023-09-19T09:01:27;16.20;99.90
60293;DHT22;52402;52.670;6.750;2023-09-19T09:03:55;16.20;99.90
60293;DHT22;52402;52.670;6.750;2023-09-19T09:06:21;16.30;99.90
60293;DHT22;52402;52.670;6.750;2023-09-19T09:08:50;16.30;99.90
60293;DHT22;52402;52.670;6.750;2023-09-19T09:11:16;16.40;99.90
60293;DHT22;52402;52.670;6.750;2023-09-19T09:13:47;16.50;99.90
60293;DHT22;52402;52.670;6.750;2023-09-19T09:16:13;16.50;99.90
60293;DHT22;52402;52.670;6.750;2023-09-19T09:18:41;16.60;99.90
60293;DHT22;52402;52.670;6.750;2023-09-19T09:21:09;16.70;99.90
60293;DHT22;52402;52.670;6.750;2023-09-19T09:23:35;16.70;99.90
60293;DHT22;52402;52.670;6.750;2023-09-19T09:26:01;16.80;99.90
60293;DHT22;52402;52.670;6.750;2023-09-19T09:28:29;16.90;99.90
60293;DHT22;52402;52.670;6.750;2023-09-19T09:30:57;17.00;99.90
60293;DHT22;52402;52.670;6.750;2023-09-19T09:33:34;17.00;99.90
60293;DHT22;52402;52.670;6.750;2023-09-19T09:36:01;17.10;99.90
60293;DHT22;52402;52.670;6.750;2023-09-19T09:38:48;17.20;99.90
60293;DHT22;52402;52.670;6.750;2023-09-19T09:41:16;17.30;99.90
60293;DHT22;52402;52.670;6.750;2023-09-19T09:43:52;17.40;99.90
60293;DHT22;52402;52.670;6.750;2023-09-19T09:46:20;17.40;99.90
60293;DHT22;52402;52.670;6.750;2023-09-19T09:48:55;17.40;99.90
60293;DHT22;52402;52.670;6.750;2023-09-19T09:51:58;17.50;99.90
60293;DHT22;52402;52.670;6.750;2023-09-19T09:54:26;17.60;99.90
60293;DHT22;52402;52.670;6.750;2023-09-19T09:57:02;17.60;99.90
60293;DHT22;52402;52.670;6.750;2023-09-19T09:59:46;17.60;99.90
60293;DHT22;52402;52.670;6.750;2023-09-19T10:02:17;17.70;99.90
60293;DHT22;52402;52.670;6.750;2023-09-19T10:04:52;17.80;99.90
60293;DHT22;52402;52.670;6.750;2023-09-19T10:07:28;17.80;99.90
60293;DHT22;52402;52.670;6.750;2023-09-19T10:10:02;17.80;99.90
60293;DHT22;52402;52.670;6.750;2023-09-19T10:12:47;17.70;99.90
60293;DHT22;52402;52.670;6.750;2023-09-19T10:15:15;17.70;99.90
60293;DHT22;52402;52.670;6.750;2023-09-19T10:17:44;17.80;99.90
60293;DHT22;52402;52.670;6.750;2023-09-19T10:20:16;17.70;99.90
60293;DHT22;52402;52.670;6.750;2023-09-19T10:23:08;17.70;99.90
60293;DHT22;52402;52.670;6.750;2023-09-19T10:25:41;17.80;99.90
60293;DHT22;52402;52.670;6.750;2023-09-19T10:28:10;17.70;99.90
60293;DHT22;52402;52.670;6.750;2023-09-19T10:30:47;17.70;99.90
60293;DHT22;52402;52.670;6.750;2023-09-19T10:33:14;17.80;99.90
60293;DHT22;52402;52.670;6.750;2023-09-19T10:35:45;17.80;99.90
60293;DHT22;52402;52.670;6.750;2023-09-19T10:38:18;18.00;99.90
60293;DHT22;52402;52.670;6.750;2023-09-19T10:40:49;18.10;99.90
60293;DHT22;52402;52.670;6.750;2023-09-19T10:43:17;18.30;99.90
60293;DHT22;52402;52.670;6.750;2023-09-19T10:45:47;18.30;99.90
60293;DHT22;52402;52.670;6.750;2023-09-19T10:48:18;18.40;99.90
60293;DHT22;52402;52.670;6.750;2023-09-19T10:53:17;18.50;99.90
60293;DHT22;52402;52.670;6.750;2023-09-19T10:55:55;18.40;99.90
60293;DHT22;52402;52.670;6.750;2023-09-19T10:58:29;18.30;99.90
60293;DHT22;52402;52.670;6.750;2023-09-19T11:01:00;18.40;99.90
60293;DHT22;52402;52.670;6.750;2023-09-19T11:03:32;18.30;99.90
60293;DHT22;52402;52.670;6.750;2023-09-19T11:06:14;18.30;99.90
60293;DHT22;52402;52.670;6.750;2023-09-19T11:09:03;18.20;99.90
60293;DHT22;52402;52.670;6.750;2023-09-19T11:30:49;18.30;99.90
60293;DHT22;52402;52.670;6.750;2023-09-19T11:33:22;18.50;99.90
60293;DHT22;52402;52.670;6.750;2023-09-19T11:36:15;18.70;99.90
60293;DHT22;52402;52.670;6.750;2023-09-19T11:41:41;18.90;99.90
60293;DHT22;52402;52.670;6.750;2023-09-19T11:49:19;19.20;99.90
60293;DHT22;52402;52.670;6.750;2023-09-19T11:51:50;19.10;99.90
60293;DHT22;52402;52.670;6.750;2023-09-19T11:54:21;19.20;99.90
60293;DHT22;52402;52.670;6.750;2023-09-19T11:56:57;19.10;99.90
60293;DHT22;52402;52.670;6.750;2023-09-19T11:59:24;19.10;99.90
60293;DHT22;52402;52.670;6.750;2023-09-19T12:02:16;19.10;99.90
60293;DHT22;52402;52.670;6.750;2023-09-19T12:04:46;19.10;99.90
60293;DHT22;52402;52.670;6.750;2023-09-19T12:07:15;19.10;99.90
60293;DHT22;52402;52.670;6.750;2023-09-19T12:09:42;19.00;99.90
60293;DHT22;52402;52.670;6.750;2023-09-19T12:12:11;18.90;99.90
60293;DHT22;52402;52.670;6.750;2023-09-19T12:14:48;18.80;99.90
60293;DHT22;52402;52.670;6.750;2023-09-19T12:17:13;18.70;99.90
60293;DHT22;52402;52.670;6.750;2023-09-19T12:19:49;18.80;99.90
60293;DHT22;52402;52.670;6.750;2023-09-19T12:22:14;18.80;99.90
60293;DHT22;52402;52.670;6.750;2023-09-19T12:24:40;19.10;99.90
60293;DHT22;52402;52.670;6.750;2023-09-19T12:27:09;19.40;99.90
60293;DHT22;52402;52.670;6.750;2023-09-19T12:29:48;19.80;99.90
60293;DHT22;52402;52.670;6.750;2023-09-19T12:32:34;19.80;99.90
60293;DHT22;52402;52.670;6.750;2023-09-19T12:35:00;19.90;99.90
60293;DHT22;52402;52.670;6.750;2023-09-19T12:37:33;19.90;99.90
60293;DHT22;52402;52.670;6.750;2023-09-19T12:40:09;19.80;99.90
60293;DHT22;52402;52.670;6.750;2023-09-19T12:42:49;19.60;99.90
60293;DHT22;52402;52.670;6.750;2023-09-19T12:45:15;19.40;99.90
60293;DHT22;52402;52.670;6.750;2023-09-19T12:48:20;19.10;99.90
60293;DHT22;52402;52.670;6.750;2023-09-19T12:51:12;19.00;99.90
60293;DHT22;52402;52.670;6.750;2023-09-19T12:53:43;18.90;99.90
60293;DHT22;52402;52.670;6.750;2023-09-19T12:56:12;19.00;99.90
60293;DHT22;52402;52.670;6.750;2023-09-19T12:58:54;19.10;99.90
60293;DHT22;52402;52.670;6.750;2023-09-19T13:01:25;19.20;99.90
60293;DHT22;52402;52.670;6.750;2023-09-19T13:04:15;19.30;99.90
60293;DHT22;52402;52.670;6.750;2023-09-19T13:06:51;19.30;99.90
60293;DHT22;52402;52.670;6.750;2023-09-19T13:09:18;19.30;99.90
60293;DHT22;52402;52.670;6.750;2023-09-19T13:11:46;19.30;99.90
60293;DHT22;52402;52.670;6.750;2023-09-19T13:14:26;19.20;99.90
60293;DHT22;52402;52.670;6.750;2023-09-19T13:17:04;19.10;99.90
60293;DHT22;52402;52.670;6.750;2023-09-19T13:19:46;19.00;99.90
60293;DHT22;52402;52.670;6.750;2023-09-19T13:22:45;18.90;99.90
60293;DHT22;52402;52.670;6.750;2023-09-19T13:25:16;18.80;99.90
60293;DHT22;52402;52.670;6.750;2023-09-19T13:27:48;18.80;99.90
60293;DHT22;52402;52.670;6.750;2023-09-19T13:30:17;18.80;99.90
60293;DHT22;52402;52.670;6.750;2023-09-19T13:32:43;18.70;99.90
60293;DHT22;52402;52.670;6.750;2023-09-19T13:35:18;18.60;99.90
60293;DHT22;52402;52.670;6.750;2023-09-19T13:37:45;18.60;99.90
60293;DHT22;52402;52.670;6.750;2023-09-19T13:40:15;18.60;99.90
60293;DHT22;52402;52.670;6.750;2023-09-19T13:42:41;18.50;99.90
60293;DHT22;52402;52.670;6.750;2023-09-19T13:45:07;18.40;99.90
60293;DHT22;52402;52.670;6.750;2023-09-19T13:47:37;18.40;99.90
60293;DHT22;52402;52.670;6.750;2023-09-19T13:50:04;18.40;99.90
60293;DHT22;52402;52.670;6.750;2023-09-19T13:52:31;18.40;99.90
60293;DHT22;52402;52.670;6.750;2023-09-19T13:54:58;18.40;99.90
60293;DHT22;52402;52.670;6.750;2023-09-19T13:57:24;18.40;99.90
60293;DHT22;52402;52.670;6.750;2023-09-19T13:59:51;18.40;99.90
60293;DHT22;52402;52.670;6.750;2023-09-19T14:02:17;18.40;99.90
60293;DHT22;52402;52.670;6.750;2023-09-19T14:04:48;18.50;99.90
60293;DHT22;52402;52.670;6.750;2023-09-19T14:07:15;18.50;99.90
60293;DHT22;52402;52.670;6.750;2023-09-19T14:09:43;18.60;99.90
60293;DHT22;52402;52.670;6.750;2023-09-19T14:12:09;18.60;99.90
60293;DHT22;52402;52.670;6.750;2023-09-19T14:14:35;18.50;99.90
60293;DHT22;52402;52.670;6.750;2023-09-19T14:17:00;18.50;99.90
60293;DHT22;52402;52.670;6.750;2023-09-19T14:19:29;18.50;99.90
60293;DHT22;52402;52.670;6.750;2023-09-19T14:21:55;18.60;99.90
60293;DHT22;52402;52.670;6.750;2023-09-19T14:24:22;18.50;99.90
60293;DHT22;52402;52.670;6.750;2023-09-19T14:26:48;18.50;99.90
60293;DHT22;52402;52.670;6.750;2023-09-19T14:29:15;18.50;99.90
60293;DHT22;52402;52.670;6.750;2023-09-19T14:31:41;18.40;99.90
60293;DHT22;52402;52.670;6.750;2023-09-19T14:34:08;18.40;99.90
60293;DHT22;52402;52.670;6.750;2023-09-19T14:36:37;18.40;99.90
60293;DHT22;52402;52.670;6.750;2023-09-19T14:39:04;18.50;99.90
60293;DHT22;52402;52.670;6.750;2023-09-19T14:41:30;18.50;99.90
60293;DHT22;52402;52.670;6.750;2023-09-19T14:43:56;18.60;99.90
60293;DHT22;52402;52.670;6.750;2023-09-19T14:46:22;18.60;99.90
60293;DHT22;52402;52.670;6.750;2023-09-19T14:48:51;18.70;99.90
60293;DHT22;52402;52.670;6.750;2023-09-19T14:51:17;18.70;99.90
60293;DHT22;52402;52.670;6.750;2023-09-19T14:53:44;18.60;99.90
60293;DHT22;52402;52.670;6.750;2023-09-19T14:56:11;18.60;99.90
60293;DHT22;52402;52.670;6.750;2023-09-19T14:58:37;18.70;99.90
60293;DHT22;52402;52.670;6.750;2023-09-19T15:01:09;18.70;99.90
60293;DHT22;52402;52.670;6.750;2023-09-19T15:03:39;18.70;99.90
60293;DHT22;52402;52.670;6.750;2023-09-19T15:06:08;18.60;99.90
60293;DHT22;52402;52.670;6.750;2023-09-19T15:08:37;18.60;99.90
60293;DHT22;52402;52.670;6.750;2023-09-19T15:11:07;18.60;99.90
60293;DHT22;52402;52.670;6.750;2023-09-19T15:13:33;18.60;99.90
60293;DHT22;52402;52.670;6.750;2023-09-19T15:16:06;18.60;99.90
60293;DHT22;52402;52.670;6.750;2023-09-19T15:18:35;18.50;99.90
60293;DHT22;52402;52.670;6.750;2023-09-19T15:21:07;18.60;99.90
60293;DHT22;52402;52.670;6.750;2023-09-19T15:23:34;18.70;99.90
60293;DHT22;52402;52.670;6.750;2023-09-19T15:26:00;18.60;99.90
60293;DHT22;52402;52.670;6.750;2023-09-19T15:28:30;18.60;99.90
60293;DHT22;52402;52.670;6.750;2023-09-19T15:31:04;18.60;99.90
60293;DHT22;52402;52.670;6.750;2023-09-19T15:33:31;18.60;99.90
60293;DHT22;52402;52.670;6.750;2023-09-19T15:36:04;18.50;99.90
60293;DHT22;52402;52.670;6.750;2023-09-19T15:38:31;18.50;99.90
60293;DHT22;52402;52.670;6.750;2023-09-19T15:40:58;18.50;99.90
60293;DHT22;52402;52.670;6.750;2023-09-19T15:43:23;18.40;99.90
60293;DHT22;52402;52.670;6.750;2023-09-19T15:45:49;18.40;99.90
60293;DHT22;52402;52.670;6.750;2023-09-19T15:48:15;18.40;99.90
60293;DHT22;52402;52.670;6.750;2023-09-19T15:50:42;18.40;99.90
60293;DHT22;52402;52.670;6.750;2023-09-19T15:53:09;18.40;99.90
60293;DHT22;52402;52.670;6.750;2023-09-19T15:55:39;18.30;99.90
60293;DHT22;52402;52.670;6.750;2023-09-19T15:58:05;18.30;99.90
60293;DHT22;52402;52.670;6.750;2023-09-19T16:00:33;18.30;99.90
60293;DHT22;52402;52.670;6.750;2023-09-19T16:03:03;18.30;99.90
60293;DHT22;52402;52.670;6.750;2023-09-19T16:05:35;18.30;99.90
60293;DHT22;52402;52.670;6.750;2023-09-19T16:08:06;18.30;99.90
60293;DHT22;52402;52.670;6.750;2023-09-19T16:10:36;18.30;99.90
60293;DHT22;52402;52.670;6.750;2023-09-19T16:13:03;18.30;99.90
60293;DHT22;52402;52.670;6.750;2023-09-19T16:15:29;18.30;99.90
60293;DHT22;52402;52.670;6.750;2023-09-19T16:17:55;18.20;99.90
60293;DHT22;52402;52.670;6.750;2023-09-19T16:20:20;18.20;99.90